Terminal Aerodrome Forecast
Issued by NWS

Home | Current Version | Previous Version | Graphics & Text | Print | Product List | Glossary On
Versions: 1 2 3 4 5 6 7 8 9 10 11 12 13 14
000
FTUS43 KABR 091120
TAFMBG
TAF
KMBG 091120Z 0912/1012 33009KT P6SM SCT150
     FM091700 27007KT P6SM FEW250
     FM092000 28011KT P6SM FEW250=

USA.gov is the U.S. government's official web portal to all federal, state and local government web resources and services.